createdAt,value
2024-05-09T00:01:38.808Z,10.50
2024-05-09T00:04:10.009Z,11.32
2024-05-09T00:06:39.936Z,11.77
2024-05-09T00:09:12.935Z,12.37
2024-05-09T00:11:45.782Z,12.38
2024-05-09T00:14:15.873Z,13.13
2024-05-09T00:16:45.918Z,13.23
2024-05-09T00:19:17.573Z,13.85
2024-05-09T00:21:47.539Z,13.85
2024-05-09T00:24:22.660Z,13.40
2024-05-09T00:26:52.428Z,13.38
2024-05-09T00:29:22.331Z,14.98
2024-05-09T00:31:52.830Z,15.65
2024-05-09T00:34:23.260Z,15.43
2024-05-09T00:36:54.152Z,15.98
2024-05-09T00:39:28.815Z,15.77
2024-05-09T00:41:59.756Z,18.38
2024-05-09T00:44:29.813Z,17.70
2024-05-09T00:46:59.843Z,18.58
2024-05-09T00:49:32.349Z,17.35
2024-05-09T00:52:03.422Z,15.32
2024-05-09T00:54:36.424Z,15.52
2024-05-09T00:57:07.422Z,12.02
2024-05-09T00:59:37.670Z,11.40
2024-05-09T01:02:09.664Z,10.93
2024-05-09T01:04:39.864Z,11.02
2024-05-09T01:07:11.371Z,12.13
2024-05-09T01:09:43.974Z,13.10
2024-05-09T01:12:14.068Z,13.97
2024-05-09T01:14:44.059Z,15.47
2024-05-09T01:17:14.316Z,17.10
2024-05-09T01:19:44.430Z,17.07
2024-05-09T01:22:14.399Z,18.67
2024-05-09T01:24:48.623Z,19.93
2024-05-09T01:27:20.675Z,20.00
2024-05-09T01:29:50.431Z,20.43
2024-05-09T01:32:20.292Z,20.53
2024-05-09T01:34:50.112Z,19.70
2024-05-09T01:37:19.910Z,19.58
2024-05-09T01:39:52.385Z,18.70
2024-05-09T01:42:22.178Z,19.63
2024-05-09T01:44:51.986Z,18.30
2024-05-09T01:47:22.049Z,17.43
2024-05-09T01:49:52.003Z,18.87
2024-05-09T01:52:21.899Z,18.37
2024-05-09T01:54:54.448Z,18.40
2024-05-09T01:57:24.271Z,18.40
2024-05-09T01:59:54.256Z,18.80
2024-05-09T02:02:24.125Z,18.50
2024-05-09T02:04:54.135Z,17.85
2024-05-09T02:07:23.989Z,18.37
2024-05-09T02:09:57.550Z,19.50
2024-05-09T02:12:27.434Z,18.70
2024-05-09T02:14:57.289Z,18.60
2024-05-09T02:17:27.599Z,18.33
2024-05-09T02:19:57.550Z,19.70
2024-05-09T02:22:27.438Z,18.35
2024-05-09T02:24:59.861Z,17.90
2024-05-09T02:27:29.683Z,18.60
2024-05-09T02:29:59.475Z,17.92
2024-05-09T02:32:29.407Z,18.60
2024-05-09T02:34:59.348Z,18.85
2024-05-09T02:37:26.549Z,18.05
2024-05-09T02:39:59.097Z,17.60
2024-05-09T02:42:26.205Z,17.63
2024-05-09T02:44:56.115Z,17.30
2024-05-09T02:47:23.467Z,18.17
2024-05-09T02:49:53.452Z,17.13
2024-05-09T02:52:20.682Z,17.00
2024-05-09T02:54:50.428Z,16.53
2024-05-09T02:57:20.279Z,17.07
2024-05-09T02:59:50.865Z,16.87
2024-05-09T03:02:18.156Z,15.18
2024-05-09T03:04:48.108Z,16.23
2024-05-09T03:07:15.266Z,16.43
2024-05-09T03:09:49.059Z,16.50
2024-05-09T03:12:16.301Z,14.77
2024-05-09T03:14:48.746Z,14.70
2024-05-09T03:17:16.004Z,14.95
2024-05-09T03:20:06.961Z,14.80
2024-05-09T03:22:36.196Z,13.07
2024-05-09T03:25:06.055Z,13.03
2024-05-09T03:27:33.280Z,14.53
2024-05-09T03:30:07.518Z,12.67
2024-05-09T03:32:34.896Z,13.70
2024-05-09T03:35:04.823Z,14.10
2024-05-09T03:37:34.699Z,16.27
2024-05-09T03:40:09.181Z,15.17
2024-05-09T03:42:41.994Z,15.20
2024-05-09T03:45:14.479Z,15.55
2024-05-09T03:47:42.334Z,15.17
2024-05-09T03:50:18.494Z,16.97
2024-05-09T03:52:53.189Z,17.33
2024-05-09T03:55:23.057Z,17.93
2024-05-09T03:57:50.265Z,18.03
2024-05-09T04:00:31.067Z,18.57
2024-05-09T04:03:06.679Z,18.93
2024-05-09T04:05:40.001Z,17.73
2024-05-09T04:08:10.103Z,17.73
2024-05-09T04:10:40.372Z,18.03
2024-05-09T04:13:07.915Z,18.57
2024-05-09T04:15:40.572Z,17.87
2024-05-09T04:18:07.992Z,18.00
2024-05-09T04:20:40.428Z,17.33
2024-05-09T04:23:12.602Z,17.70
2024-05-09T04:25:45.795Z,17.23
2024-05-09T04:28:13.468Z,17.50
2024-05-09T04:30:46.785Z,17.73
2024-05-09T04:33:15.766Z,17.63
2024-05-09T04:35:46.105Z,17.83
2024-05-09T04:38:14.566Z,17.77
2024-05-09T04:40:45.242Z,18.83
2024-05-09T04:43:15.826Z,18.57
2024-05-09T04:45:48.501Z,18.00
2024-05-09T04:48:16.833Z,18.57
2024-05-09T04:50:47.551Z,19.27
2024-05-09T04:53:16.678Z,20.53
2024-05-09T04:55:46.792Z,19.03
2024-05-09T04:58:14.265Z,19.20
2024-05-09T05:00:44.169Z,19.40
2024-05-09T05:03:15.855Z,19.65
2024-05-09T05:05:47.181Z,21.33
2024-05-09T05:08:15.383Z,18.40
2024-05-09T05:10:46.630Z,18.95
2024-05-09T05:13:20.748Z,19.03
2024-05-09T05:15:53.611Z,17.27
2024-05-09T05:18:24.249Z,18.58
2024-05-09T05:20:54.606Z,17.52
2024-05-09T05:23:25.541Z,17.98
2024-05-09T05:25:56.034Z,19.08
2024-05-09T05:28:23.580Z,16.65
2024-05-09T05:30:53.516Z,17.17
2024-05-09T05:33:26.292Z,16.05
2024-05-09T05:35:55.901Z,16.35
2024-05-09T05:38:28.201Z,17.30
2024-05-09T05:40:56.351Z,17.50
2024-05-09T05:43:26.233Z,18.33
2024-05-09T05:45:54.964Z,18.10
2024-05-09T05:48:27.687Z,17.08
2024-05-09T05:50:54.962Z,17.00
2024-05-09T05:53:24.737Z,17.10
2024-05-09T05:55:52.044Z,16.65
2024-05-09T05:58:22.616Z,20.63
2024-05-09T06:00:53.312Z,17.75
2024-05-09T06:03:23.290Z,17.92
2024-05-09T06:05:53.255Z,16.75
2024-05-09T06:08:23.758Z,18.02
2024-05-09T06:10:52.033Z,19.50
2024-05-09T06:13:21.975Z,18.02
2024-05-09T06:15:51.573Z,20.58
2024-05-09T06:18:21.901Z,17.58
2024-05-09T06:20:49.328Z,17.25
2024-05-09T06:23:22.120Z,16.00
2024-05-09T06:25:51.077Z,14.27
2024-05-09T06:28:20.897Z,15.82
2024-05-09T06:30:48.044Z,21.20
2024-05-09T06:33:18.123Z,16.80
2024-05-09T06:35:46.449Z,14.07
2024-05-09T06:38:16.457Z,12.73
2024-05-09T06:40:46.411Z,12.30
2024-05-09T06:43:18.699Z,12.10
2024-05-09T06:45:47.885Z,9.57
2024-05-09T06:48:20.647Z,8.98
2024-05-09T06:50:48.513Z,9.35
2024-05-09T06:53:19.647Z,10.35
2024-05-09T06:55:49.927Z,11.27
2024-05-09T06:58:19.975Z,13.07
2024-05-09T07:00:47.245Z,13.30
2024-05-09T07:03:19.182Z,13.52
2024-05-09T07:05:48.661Z,15.15
2024-05-09T07:08:19.684Z,15.68
2024-05-09T07:10:50.214Z,15.45
2024-05-09T07:13:20.261Z,15.43
2024-05-09T07:15:47.409Z,16.10
2024-05-09T07:18:20.257Z,16.08
2024-05-09T07:20:50.740Z,17.13
2024-05-09T07:23:21.262Z,16.15
2024-05-09T07:25:51.182Z,16.75
2024-05-09T07:28:22.608Z,18.30
2024-05-09T07:30:49.736Z,17.85
2024-05-09T07:33:22.098Z,18.92
2024-05-09T07:35:50.818Z,18.70
2024-05-09T07:38:20.867Z,19.60
2024-05-09T07:40:53.462Z,19.52
2024-05-09T07:43:20.686Z,19.42
2024-05-09T07:45:54.096Z,20.63
2024-05-09T07:52:45.965Z,23.20
2024-05-09T07:53:48.837Z,20.80
2024-05-09T07:56:25.440Z,22.02
2024-05-09T07:58:53.836Z,23.92
2024-05-09T08:01:25.796Z,19.75
2024-05-09T08:03:53.933Z,22.48
2024-05-09T08:06:23.837Z,23.75
2024-05-09T08:08:51.050Z,25.77
2024-05-09T08:11:20.920Z,23.65
2024-05-09T08:13:50.878Z,22.08
2024-05-09T08:16:20.809Z,23.95
2024-05-09T08:18:48.161Z,24.90
2024-05-09T08:21:19.405Z,20.48
2024-05-09T08:23:46.590Z,19.58
2024-05-09T08:26:16.361Z,21.30
2024-05-09T08:28:43.488Z,20.90
2024-05-09T08:31:16.179Z,19.35
2024-05-09T08:33:47.795Z,19.55
2024-05-09T08:36:17.945Z,20.33
2024-05-09T08:38:45.127Z,21.73
2024-05-09T08:41:17.319Z,22.35
2024-05-09T08:43:44.928Z,19.95
2024-05-09T08:46:19.186Z,20.38
2024-05-09T08:48:49.937Z,17.95
2024-05-09T08:51:20.032Z,14.55
2024-05-09T08:53:47.313Z,12.65
2024-05-09T08:56:19.140Z,11.88
2024-05-09T08:58:48.218Z,11.80
2024-05-09T09:01:21.854Z,12.80
2024-05-09T09:03:51.746Z,13.98
2024-05-09T09:06:24.634Z,13.40
2024-05-09T09:08:53.397Z,12.88
2024-05-09T09:11:23.241Z,14.93
2024-05-09T09:13:50.475Z,13.80
2024-05-09T09:16:23.363Z,15.07
2024-05-09T09:18:53.568Z,17.58
2024-05-09T09:21:23.387Z,14.82
2024-05-09T09:23:50.537Z,13.80
2024-05-09T09:26:20.893Z,12.35
2024-05-09T09:28:48.084Z,12.68
2024-05-09T09:31:22.678Z,13.35
2024-05-09T09:33:50.152Z,15.00
2024-05-09T09:36:19.992Z,16.25
2024-05-09T09:38:48.127Z,16.02
2024-05-09T09:41:20.931Z,13.25
2024-05-09T09:43:48.593Z,13.68
2024-05-09T09:46:21.318Z,11.90
2024-05-09T09:48:52.042Z,12.75
2024-05-09T09:51:22.831Z,12.88
2024-05-09T09:53:52.817Z,12.18
2024-05-09T09:56:24.086Z,12.18
2024-05-09T09:58:53.293Z,13.50
2024-05-09T10:01:23.204Z,14.35
2024-05-09T10:03:54.008Z,13.93
2024-05-09T10:06:25.840Z,14.65
2024-05-09T10:08:54.329Z,14.45
2024-05-09T10:11:39.466Z,14.48
2024-05-09T10:14:09.254Z,15.23
2024-05-09T10:16:45.728Z,15.98
2024-05-09T10:19:26.429Z,14.82
2024-05-09T10:22:04.646Z,14.25
2024-05-09T10:24:47.467Z,15.48
2024-05-09T10:27:17.413Z,16.85
2024-05-09T10:29:54.174Z,17.92
2024-05-09T10:32:24.125Z,19.10
2024-05-09T10:35:07.663Z,17.45
2024-05-09T10:37:38.295Z,18.25
2024-05-09T10:40:13.972Z,18.27
2024-05-09T10:42:47.728Z,17.40
2024-05-09T10:45:16.599Z,18.83
2024-05-09T10:47:46.657Z,19.02
2024-05-09T10:50:22.653Z,18.90
2024-05-09T10:52:58.539Z,19.75
2024-05-09T10:55:25.985Z,18.58
2024-05-09T10:57:55.866Z,21.15
2024-05-09T11:00:29.969Z,20.30
2024-05-09T11:03:03.819Z,19.65
2024-05-09T11:05:34.919Z,18.90
2024-05-09T11:08:05.282Z,20.70
2024-05-09T11:10:34.376Z,21.88
2024-05-09T11:13:04.638Z,21.50
2024-05-09T11:15:38.729Z,21.20
2024-05-09T11:18:09.104Z,22.88
2024-05-09T11:20:39.157Z,21.63
2024-05-09T11:23:09.538Z,21.77
2024-05-09T11:25:36.832Z,21.15
2024-05-09T11:28:07.464Z,19.38
2024-05-09T11:30:35.560Z,18.95
2024-05-09T11:33:05.869Z,16.10
2024-05-09T11:35:33.233Z,18.83
2024-05-09T11:38:06.092Z,18.45
2024-05-09T11:40:34.647Z,19.35
2024-05-09T11:43:04.739Z,15.23
2024-05-09T11:45:32.270Z,15.10
2024-05-09T11:48:02.692Z,16.77
2024-05-09T11:50:35.606Z,19.13
2024-05-09T11:53:09.535Z,15.88
2024-05-09T11:55:36.921Z,17.25
2024-05-09T11:58:08.440Z,14.75
2024-05-09T12:00:37.572Z,14.43
2024-05-09T12:03:08.633Z,16.65
2024-05-09T12:05:35.921Z,14.85
2024-05-09T12:08:09.629Z,14.93
2024-05-09T12:10:37.514Z,13.32
2024-05-09T12:13:08.133Z,11.55
2024-05-09T12:15:37.438Z,9.52
2024-05-09T12:18:09.165Z,8.05
2024-05-09T12:20:39.172Z,8.73
2024-05-09T12:23:12.749Z,8.90
2024-05-09T12:25:40.364Z,8.48
2024-05-09T12:28:10.779Z,8.57
2024-05-09T12:30:40.337Z,7.65
2024-05-09T12:33:12.907Z,7.63
2024-05-09T12:35:41.780Z,5.20
2024-05-09T12:38:15.780Z,5.05
2024-05-09T12:40:43.482Z,3.63
2024-05-09T12:43:13.531Z,3.63
2024-05-09T12:45:40.928Z,3.70
2024-05-09T12:48:12.265Z,3.78
2024-05-09T12:50:40.408Z,3.70
2024-05-09T12:53:10.506Z,3.30
2024-05-09T12:55:48.258Z,3.90
2024-05-09T12:58:24.753Z,3.67
2024-05-09T13:00:52.624Z,3.72
2024-05-09T13:03:22.912Z,4.15
2024-05-09T13:05:50.653Z,3.65
2024-05-09T13:08:21.006Z,4.57
2024-05-09T13:10:51.423Z,4.10
2024-05-09T13:13:21.389Z,4.10
2024-05-09T13:15:48.720Z,5.22
2024-05-09T13:18:18.787Z,5.30
2024-05-09T13:20:45.998Z,5.25
2024-05-09T13:23:15.822Z,5.10
2024-05-09T13:25:43.209Z,4.72
2024-05-09T13:28:15.748Z,5.00
2024-05-09T13:30:43.413Z,4.85
2024-05-09T13:33:14.442Z,4.93
2024-05-09T13:35:46.785Z,4.97
2024-05-09T13:38:20.043Z,5.22
2024-05-09T13:40:50.621Z,5.25
2024-05-09T13:43:24.126Z,6.10
2024-05-09T13:45:55.360Z,7.72
2024-05-09T13:48:25.619Z,6.68
2024-05-09T13:50:52.918Z,6.05
2024-05-09T13:53:22.797Z,5.95
2024-05-09T13:55:50.354Z,6.25
2024-05-09T13:58:20.661Z,7.30
2024-05-09T14:00:50.901Z,6.70
2024-05-09T14:03:22.098Z,5.85
2024-05-09T14:05:51.296Z,5.93
2024-05-09T14:08:22.837Z,5.78
2024-05-09T14:10:50.909Z,6.05
2024-05-09T14:13:20.963Z,6.35
2024-05-09T14:15:51.363Z,6.00
2024-05-09T14:18:21.448Z,6.25
2024-05-09T14:20:49.790Z,7.00
2024-05-09T14:23:20.969Z,5.93
2024-05-09T14:25:52.185Z,6.45
2024-05-09T14:28:23.061Z,6.80
2024-05-09T14:30:53.489Z,6.63
2024-05-09T14:33:26.833Z,5.90
2024-05-09T14:35:54.592Z,6.07
2024-05-09T14:38:32.124Z,6.20
2024-05-09T14:40:59.661Z,6.65
2024-05-09T14:43:29.774Z,7.05
2024-05-09T14:45:59.668Z,6.13
2024-05-09T14:48:30.139Z,6.88
2024-05-09T14:50:57.439Z,8.65
2024-05-09T14:53:28.399Z,7.47
2024-05-09T14:55:55.891Z,8.35
2024-05-09T14:58:26.622Z,7.30
2024-05-09T15:00:53.877Z,8.50
2024-05-09T15:03:26.507Z,7.82
2024-05-09T15:05:53.970Z,8.25
2024-05-09T15:08:24.001Z,7.45
2024-05-09T15:10:51.312Z,9.20
2024-05-09T15:13:21.618Z,8.25
2024-05-09T15:15:49.230Z,8.02
2024-05-09T15:18:19.483Z,7.90
2024-05-09T15:20:49.510Z,6.53
2024-05-09T15:23:19.751Z,6.50
2024-05-09T15:25:47.423Z,5.55
2024-05-09T15:28:17.680Z,6.20
2024-05-09T15:30:46.595Z,6.43
2024-05-09T15:33:17.729Z,6.03
2024-05-09T15:35:47.054Z,6.53
2024-05-09T15:38:20.209Z,5.45
2024-05-09T15:40:48.286Z,5.53
2024-05-09T15:43:18.486Z,5.88
2024-05-09T15:45:45.811Z,5.28
2024-05-09T15:48:15.993Z,6.00
2024-05-09T15:50:45.577Z,6.53
2024-05-09T15:53:15.709Z,6.32
2024-05-09T15:55:45.634Z,5.55
2024-05-09T15:58:16.190Z,6.10
2024-05-09T16:00:48.682Z,6.07
2024-05-09T16:03:21.409Z,6.90
2024-05-09T16:05:51.427Z,6.30
2024-05-09T16:08:21.383Z,8.82
2024-05-09T16:10:51.460Z,7.07
2024-05-09T16:13:22.105Z,7.82
2024-05-09T16:15:49.417Z,6.60
2024-05-09T16:18:19.745Z,6.70
2024-05-09T16:20:49.490Z,7.33
2024-05-09T16:23:21.762Z,7.75
2024-05-09T16:25:52.125Z,7.25
2024-05-09T16:28:23.892Z,7.07
2024-05-09T16:30:55.275Z,7.57
2024-05-09T16:33:26.731Z,7.28
2024-05-09T16:35:53.980Z,8.25
2024-05-09T16:38:23.846Z,7.55
2024-05-09T16:40:55.937Z,7.97
2024-05-09T16:43:26.073Z,7.82
2024-05-09T16:45:53.516Z,7.93
2024-05-09T16:48:25.612Z,9.07
2024-05-09T16:50:52.929Z,7.65
2024-05-09T16:53:23.412Z,8.40
2024-05-09T16:55:50.590Z,7.47
2024-05-09T16:58:23.346Z,8.63
2024-05-09T17:00:51.058Z,6.95
2024-05-09T17:03:21.605Z,6.30
2024-05-09T17:05:50.582Z,6.90
2024-05-09T17:08:20.694Z,6.93
2024-05-09T17:10:49.456Z,6.68
2024-05-09T17:13:23.015Z,6.65
2024-05-09T17:15:53.129Z,6.75
2024-05-09T17:18:23.237Z,7.80
2024-05-09T17:20:53.520Z,7.03
2024-05-09T17:23:20.683Z,7.17
2024-05-09T17:25:50.471Z,6.85
2024-05-09T17:28:20.656Z,6.88
2024-05-09T17:30:51.423Z,7.78
2024-05-09T17:33:18.945Z,6.57
2024-05-09T17:35:50.780Z,7.60
2024-05-09T17:38:20.412Z,6.80
2024-05-09T17:40:51.558Z,7.05
2024-05-09T17:43:21.767Z,6.77
2024-05-09T17:45:51.796Z,7.70
2024-05-09T17:48:19.506Z,7.50
2024-05-09T17:50:51.880Z,7.23
2024-05-09T17:53:20.321Z,6.70
2024-05-09T17:55:54.062Z,6.32
2024-05-09T17:58:24.093Z,6.65
2024-05-09T18:00:54.278Z,6.22
2024-05-09T18:03:23.394Z,6.00
2024-05-09T18:05:53.920Z,6.47
2024-05-09T18:08:21.282Z,6.10
2024-05-09T18:10:52.720Z,5.55
2024-05-09T18:13:24.149Z,5.95
2024-05-09T18:15:54.256Z,5.80
2024-05-09T18:18:21.631Z,6.23
2024-05-09T18:20:53.037Z,5.22
2024-05-09T18:23:20.235Z,6.20
2024-05-09T18:25:54.713Z,5.50
2024-05-09T18:28:25.056Z,6.07
2024-05-09T18:30:55.180Z,5.90
2024-05-09T18:33:23.559Z,6.17
2024-05-09T18:35:53.442Z,5.97
2024-05-09T18:38:26.891Z,5.97
2024-05-09T18:40:54.447Z,5.80
2024-05-09T18:43:28.950Z,5.40
2024-05-09T18:46:06.181Z,5.77
2024-05-09T18:48:36.668Z,5.83
2024-05-09T18:51:05.654Z,6.17
2024-05-09T18:53:35.493Z,5.67
2024-05-09T18:56:02.724Z,5.70
2024-05-09T18:58:32.519Z,6.47
2024-05-09T19:01:01.736Z,6.60
2024-05-09T19:03:35.528Z,6.50
2024-05-09T19:06:03.516Z,6.00
2024-05-09T19:08:33.731Z,7.47
2024-05-09T19:11:02.058Z,6.33
2024-05-09T19:13:32.108Z,6.73
2024-05-09T19:15:59.496Z,7.10
2024-05-09T19:18:30.913Z,7.40
2024-05-09T19:21:00.875Z,12.02
2024-05-09T19:23:35.177Z,6.93
2024-05-09T19:26:05.431Z,6.27
2024-05-09T19:28:35.271Z,7.50
2024-05-09T19:31:02.778Z,6.40
2024-05-09T19:33:32.752Z,5.50
2024-05-09T19:36:02.795Z,6.33
2024-05-09T19:38:32.783Z,7.30
2024-05-09T19:41:00.057Z,7.77
2024-05-09T19:43:32.274Z,7.97
2024-05-09T19:46:01.216Z,7.00
2024-05-09T19:48:31.371Z,6.83
2024-05-09T19:50:58.834Z,7.40
2024-05-09T19:53:31.573Z,8.17
2024-05-09T19:55:59.019Z,7.10
2024-05-09T19:58:28.947Z,6.33
2024-05-09T20:00:56.258Z,6.93
2024-05-09T20:03:26.152Z,7.10
2024-05-09T20:05:53.383Z,6.07
2024-05-09T20:08:23.242Z,7.23
2024-05-09T20:10:53.871Z,7.17
2024-05-09T20:13:24.050Z,6.83
2024-05-09T20:15:51.529Z,7.97
2024-05-09T20:18:21.351Z,8.60
2024-05-09T20:20:51.630Z,8.83
2024-05-09T20:23:23.129Z,8.10
2024-05-09T20:25:52.887Z,6.73
2024-05-09T20:28:22.799Z,6.67
2024-05-09T20:30:50.248Z,5.83
2024-05-09T20:33:21.550Z,6.67
2024-05-09T20:35:48.779Z,7.03
2024-05-09T20:38:18.614Z,6.00
2024-05-09T20:40:48.612Z,7.70
2024-05-09T20:43:23.184Z,6.53
2024-05-09T20:45:50.432Z,7.63
2024-05-09T20:48:20.648Z,7.67
2024-05-09T20:50:48.011Z,6.80
2024-05-09T20:53:18.977Z,6.33
2024-05-09T20:55:47.701Z,5.60
2024-05-09T20:58:20.723Z,5.60
2024-05-09T21:00:48.102Z,5.60
2024-05-09T21:03:18.564Z,6.13
2024-05-09T21:05:46.571Z,6.13
2024-05-09T21:08:17.174Z,5.83
2024-05-09T21:10:46.993Z,6.17
2024-05-09T21:13:17.007Z,5.63
2024-05-09T21:15:47.095Z,5.07
2024-05-09T21:18:17.013Z,5.17
2024-05-09T21:20:44.568Z,4.97
2024-05-09T21:23:14.409Z,5.60
2024-05-09T21:25:41.584Z,5.57
2024-05-09T21:28:11.517Z,5.90
2024-05-09T21:30:42.282Z,7.27
2024-05-09T21:33:17.145Z,5.93
2024-05-09T21:35:44.979Z,5.93
2024-05-09T21:38:16.345Z,5.60
2024-05-09T21:40:44.229Z,5.70
2024-05-09T21:43:17.688Z,5.70
2024-05-09T21:45:45.350Z,5.40
2024-05-09T21:48:18.600Z,5.90
2024-05-09T21:50:48.100Z,6.00
2024-05-09T21:53:18.988Z,5.47
2024-05-09T21:55:47.158Z,5.70
2024-05-09T21:58:17.681Z,5.10
2024-05-09T22:00:46.458Z,5.70
2024-05-09T22:03:19.500Z,5.60
2024-05-09T22:05:46.820Z,6.00
2024-05-09T22:08:16.874Z,5.70
2024-05-09T22:10:44.524Z,5.70
2024-05-09T22:13:19.289Z,6.20
2024-05-09T22:15:46.761Z,5.90
2024-05-09T22:18:19.493Z,5.87
2024-05-09T22:20:47.196Z,5.90
2024-05-09T22:23:20.255Z,5.73
2024-05-09T22:25:48.369Z,5.23
2024-05-09T22:28:18.609Z,4.70
2024-05-09T22:30:50.694Z,4.80
2024-05-09T22:33:23.489Z,4.80
2024-05-09T22:35:51.758Z,5.77
2024-05-09T22:38:22.950Z,5.87
2024-05-09T22:40:50.310Z,6.80
2024-05-09T22:43:25.736Z,7.37
2024-05-09T22:45:56.295Z,7.30
2024-05-09T22:52:18.451Z,7.00
2024-05-09T22:54:45.627Z,8.00
2024-05-09T22:57:15.404Z,8.40
2024-05-09T22:59:44.190Z,9.03
2024-05-09T23:02:18.190Z,9.60
2024-05-09T23:04:48.568Z,9.90
2024-05-09T23:07:21.175Z,10.27
2024-05-09T23:09:48.430Z,11.37
2024-05-09T23:12:18.686Z,12.60
2024-05-09T23:14:45.836Z,11.97
2024-05-09T23:17:19.581Z,12.17
2024-05-09T23:19:48.202Z,13.37
2024-05-09T23:22:20.885Z,12.77
2024-05-09T23:24:48.240Z,13.17
2024-05-09T23:27:20.922Z,13.60
2024-05-09T23:29:48.082Z,13.03
2024-05-09T23:32:18.488Z,13.17
2024-05-09T23:34:48.087Z,12.80
2024-05-09T23:37:20.902Z,11.30
2024-05-09T23:39:48.213Z,11.27
2024-05-09T23:42:17.960Z,10.97
2024-05-09T23:44:45.115Z,10.13
2024-05-09T23:47:17.968Z,10.37
2024-05-09T23:49:45.339Z,9.53
2024-05-09T23:52:15.325Z,9.57
2024-05-09T23:54:49.394Z,9.17
2024-05-09T23:57:19.471Z,8.77
2024-05-09T23:59:49.757Z,7.73
